createdAt,value
2019-04-20T00:00:41.131Z,14.50
2019-04-20T00:03:05.980Z,14.50
2019-04-20T00:05:35.021Z,14.40
2019-04-20T00:08:09.177Z,14.30
2019-04-20T00:10:44.760Z,14.30
2019-04-20T00:13:16.352Z,14.20
2019-04-20T00:15:34.571Z,14.20
2019-04-20T00:18:08.099Z,14.20
2019-04-20T00:20:39.041Z,14.10
2019-04-20T00:23:29.343Z,14.10
2019-04-20T00:26:18.318Z,14.10
2019-04-20T00:29:00.259Z,14.10
2019-04-20T00:31:26.867Z,14.00
2019-04-20T00:33:52.818Z,14.00
2019-04-20T00:36:11.904Z,14.00
2019-04-20T00:38:48.358Z,14.00
2019-04-20T00:41:13.468Z,13.90
2019-04-20T00:43:42.197Z,13.90
2019-04-20T00:46:19.607Z,13.90
2019-04-20T00:48:50.464Z,13.90
2019-04-20T00:53:46.765Z,13.80
2019-04-20T00:56:11.902Z,13.80
2019-04-20T00:58:53.308Z,13.80
2019-04-20T01:01:31.113Z,13.80
2019-04-20T01:04:02.501Z,13.70
2019-04-20T01:06:36.887Z,13.70
2019-04-20T01:08:53.039Z,13.70
2019-04-20T01:11:26.976Z,13.60
2019-04-20T01:13:58.468Z,13.60
2019-04-20T01:16:33.360Z,13.50
2019-04-20T01:18:51.409Z,13.50
2019-04-20T01:21:23.583Z,13.40
2019-04-20T01:23:55.163Z,13.40
2019-04-20T01:26:22.637Z,13.30
2019-04-20T01:29:02.955Z,13.30
2019-04-20T01:31:33.686Z,13.30
2019-04-20T01:34:03.113Z,13.20
2019-04-20T01:36:40.649Z,13.20
2019-04-20T01:39:13.789Z,13.20
2019-04-20T01:41:37.124Z,13.20
2019-04-20T01:44:07.119Z,13.10
2019-04-20T01:46:39.150Z,13.10
2019-04-20T01:49:11.470Z,13.10
2019-04-20T01:51:47.757Z,13.10
2019-04-20T01:54:22.690Z,13.00
2019-04-20T01:56:51.133Z,13.00
2019-04-20T01:59:22.807Z,13.00
2019-04-20T02:02:05.137Z,13.00
2019-04-20T02:04:40.982Z,12.90
2019-04-20T02:07:09.124Z,12.90
2019-04-20T02:09:43.292Z,12.90
2019-04-20T02:12:14.855Z,12.90
2019-04-20T02:14:46.232Z,12.90
2019-04-20T02:17:16.763Z,12.80
2019-04-20T02:20:00.912Z,12.80
2019-04-20T02:22:23.130Z,12.80
2019-04-20T02:24:38.804Z,12.70
2019-04-20T02:27:08.162Z,12.70
2019-04-20T02:30:04.467Z,12.60
2019-04-20T02:35:16.423Z,12.60
2019-04-20T02:38:03.156Z,12.50
2019-04-20T02:40:34.525Z,12.50
2019-04-20T02:42:57.352Z,12.40
2019-04-20T02:47:57.019Z,12.40
2019-04-20T02:50:24.991Z,12.40
2019-04-20T02:52:56.766Z,12.40
2019-04-20T02:55:24.060Z,12.40
2019-04-20T02:58:11.333Z,12.30
2019-04-20T03:00:22.030Z,12.30
2019-04-20T03:02:36.240Z,12.30
2019-04-20T03:05:08.169Z,12.30
2019-04-20T03:07:34.448Z,12.30
2019-04-20T03:10:14.079Z,12.20
2019-04-20T03:12:47.807Z,12.20
2019-04-20T03:15:05.068Z,12.20
2019-04-20T03:17:46.525Z,12.20
2019-04-20T03:20:03.072Z,12.20
2019-04-20T03:23:06.789Z,12.20
2019-04-20T03:25:12.394Z,12.20
2019-04-20T03:27:51.747Z,12.20
2019-04-20T03:31:16.346Z,12.20
2019-04-20T03:33:24.542Z,12.10
2019-04-20T03:35:35.374Z,12.20
2019-04-20T03:38:09.190Z,12.20
2019-04-20T03:40:30.012Z,12.10
2019-04-20T03:42:44.667Z,12.10
2019-04-20T03:45:17.735Z,12.10
2019-04-20T03:47:57.078Z,12.10
2019-04-20T03:50:35.596Z,12.00
2019-04-20T03:53:13.948Z,12.00
2019-04-20T03:55:47.486Z,12.00
2019-04-20T03:58:18.655Z,11.90
2019-04-20T04:00:48.413Z,11.90
2019-04-20T04:03:34.986Z,11.90
2019-04-20T04:06:08.635Z,11.80
2019-04-20T04:08:32.624Z,11.80
2019-04-20T04:11:12.430Z,11.70
2019-04-20T04:13:24.954Z,11.70
2019-04-20T04:15:59.345Z,11.70
2019-04-20T04:18:30.129Z,11.70
2019-04-20T04:21:00.091Z,11.60
2019-04-20T04:23:40.844Z,11.60
2019-04-20T04:26:08.758Z,11.60
2019-04-20T04:28:53.570Z,11.60
2019-04-20T04:31:11.954Z,11.50
2019-04-20T04:36:10.157Z,11.50
2019-04-20T04:41:20.221Z,11.40
2019-04-20T04:43:39.984Z,11.40
2019-04-20T04:45:55.404Z,11.40
2019-04-20T04:48:31.473Z,11.40
2019-04-20T04:50:59.919Z,11.40
2019-04-20T04:53:36.735Z,11.30
2019-04-20T04:56:01.324Z,11.40
2019-04-20T04:58:25.674Z,11.30
2019-04-20T05:01:05.660Z,11.30
2019-04-20T05:04:19.165Z,11.30
2019-04-20T05:06:35.546Z,11.30
2019-04-20T05:08:53.327Z,11.30
2019-04-20T05:11:19.614Z,11.30
2019-04-20T05:13:54.682Z,11.20
2019-04-20T05:16:40.068Z,11.30
2019-04-20T05:19:14.760Z,11.30
2019-04-20T05:21:46.387Z,11.30
2019-04-20T05:24:23.166Z,11.30
2019-04-20T05:27:02.005Z,11.30
2019-04-20T05:29:14.476Z,11.40
2019-04-20T05:31:43.475Z,11.40
2019-04-20T05:34:30.987Z,11.40
2019-04-20T05:36:57.345Z,11.50
2019-04-20T05:39:34.643Z,11.40
2019-04-20T05:41:53.170Z,11.50
2019-04-20T05:44:23.734Z,11.50
2019-04-20T05:47:01.041Z,11.60
2019-04-20T05:49:40.372Z,11.60
2019-04-20T05:51:54.480Z,11.70
2019-04-20T05:54:33.590Z,11.70
2019-04-20T05:57:07.743Z,11.70
2019-04-20T05:59:27.051Z,11.80
2019-04-20T06:02:03.559Z,11.80
2019-04-20T06:04:42.679Z,11.90
2019-04-20T06:07:06.042Z,11.90
2019-04-20T06:09:51.805Z,11.90
2019-04-20T06:12:17.378Z,12.00
2019-04-20T06:14:33.102Z,12.00
2019-04-20T06:17:11.371Z,12.10
2019-04-20T06:19:35.497Z,12.10
2019-04-20T06:22:11.363Z,12.20
2019-04-20T06:24:44.895Z,12.20
2019-04-20T06:27:11.044Z,12.30
2019-04-20T06:29:43.897Z,12.30
2019-04-20T06:32:17.333Z,12.40
2019-04-20T06:34:40.079Z,12.40
2019-04-20T06:37:06.783Z,12.50
2019-04-20T06:39:44.840Z,12.60
2019-04-20T06:45:01.701Z,12.70
2019-04-20T06:49:56.465Z,12.90
2019-04-20T06:52:23.692Z,12.90
2019-04-20T06:55:02.460Z,13.00
2019-04-20T06:57:57.293Z,13.10
2019-04-20T07:00:14.117Z,13.20
2019-04-20T07:02:42.860Z,13.20
2019-04-20T07:05:11.852Z,13.30
2019-04-20T07:07:43.239Z,13.40
2019-04-20T07:10:16.254Z,13.50
2019-04-20T07:12:39.993Z,13.60
2019-04-20T07:15:00.113Z,13.60
2019-04-20T07:20:26.007Z,14.40
2019-04-20T07:23:11.106Z,15.80
2019-04-20T07:25:31.079Z,17.30
2019-04-20T07:28:06.518Z,18.50
2019-04-20T07:30:34.709Z,19.60
2019-04-20T07:33:06.972Z,20.60
2019-04-20T07:35:35.398Z,21.50
2019-04-20T07:40:28.978Z,23.10
2019-04-20T07:42:59.211Z,23.70
2019-04-20T07:50:25.216Z,25.20
2019-04-20T07:52:54.200Z,25.60
2019-04-20T07:55:40.432Z,26.10
2019-04-20T07:57:57.968Z,26.40
2019-04-20T08:00:41.967Z,26.80
2019-04-20T08:03:28.179Z,27.00
2019-04-20T08:06:01.201Z,27.20
2019-04-20T08:08:32.692Z,27.40
2019-04-20T08:11:07.800Z,27.40
2019-04-20T08:13:45.795Z,27.40
2019-04-20T08:16:20.375Z,27.40
2019-04-20T08:18:44.073Z,27.30
2019-04-20T08:21:09.898Z,27.20
2019-04-20T08:23:42.941Z,27.10
2019-04-20T08:26:01.739Z,26.90
2019-04-20T08:28:45.804Z,26.90
2019-04-20T08:31:20.390Z,26.90
2019-04-20T08:34:27.234Z,26.90
2019-04-20T08:36:39.267Z,26.90
2019-04-20T08:39:26.930Z,26.80
2019-04-20T08:41:37.034Z,26.80
2019-04-20T08:44:21.637Z,26.90
2019-04-20T08:46:45.604Z,26.90
2019-04-20T08:49:11.570Z,27.00
2019-04-20T08:51:41.523Z,26.90
2019-04-20T08:54:11.236Z,27.00
2019-04-20T08:56:31.160Z,26.90
2019-04-20T08:58:48.508Z,27.00
2019-04-20T09:01:21.610Z,27.10
2019-04-20T09:03:58.934Z,27.30
2019-04-20T09:06:32.268Z,27.40
2019-04-20T09:09:02.896Z,27.40
2019-04-20T09:11:45.221Z,27.50
2019-04-20T09:13:51.995Z,27.50
2019-04-20T09:16:20.775Z,27.50
2019-04-20T09:18:55.554Z,27.50
2019-04-20T09:21:29.668Z,27.50
2019-04-20T09:24:17.165Z,27.50
2019-04-20T09:26:37.693Z,27.60
2019-04-20T09:29:04.100Z,27.70
2019-04-20T09:31:43.739Z,27.80
2019-04-20T09:34:16.250Z,27.90
2019-04-20T09:36:49.314Z,27.90
2019-04-20T09:39:27.050Z,28.00
2019-04-20T09:42:05.741Z,28.00
2019-04-20T09:44:38.690Z,28.10
2019-04-20T09:47:05.580Z,28.10
2019-04-20T09:49:46.002Z,28.20
2019-04-20T09:52:16.986Z,28.20
2019-04-20T09:54:52.837Z,28.30
2019-04-20T09:57:25.549Z,28.40
2019-04-20T09:59:54.309Z,28.50
2019-04-20T10:02:13.699Z,28.60
2019-04-20T10:04:35.800Z,28.90
2019-04-20T10:07:09.578Z,29.00
2019-04-20T10:09:39.815Z,29.20
2019-04-20T10:12:05.686Z,29.20
2019-04-20T10:14:35.201Z,29.40
2019-04-20T10:17:03.715Z,29.60
2019-04-20T10:19:34.639Z,29.70
2019-04-20T10:22:02.510Z,29.70
2019-04-20T10:24:30.956Z,29.70
2019-04-20T10:27:00.728Z,29.80
2019-04-20T10:29:29.238Z,29.90
2019-04-20T10:32:00.674Z,30.00
2019-04-20T10:34:28.490Z,29.90
2019-04-20T10:36:59.629Z,30.10
2019-04-20T10:39:30.792Z,30.20
2019-04-20T10:42:02.460Z,30.40
2019-04-20T10:44:29.400Z,30.50
2019-04-20T10:46:58.814Z,30.60
2019-04-20T10:49:28.993Z,30.70
2019-04-20T10:51:57.804Z,30.90
2019-04-20T10:54:27.904Z,31.00
2019-04-20T10:56:57.384Z,31.20
2019-04-20T10:59:25.867Z,31.40
2019-04-20T11:01:54.275Z,31.40
2019-04-20T11:04:23.024Z,31.40
2019-04-20T11:06:52.445Z,31.40
2019-04-20T11:09:21.055Z,31.40
2019-04-20T11:11:50.322Z,31.50
2019-04-20T11:14:26.585Z,31.50
2019-04-20T11:16:48.732Z,31.50
2019-04-20T11:19:17.114Z,31.50
2019-04-20T11:21:46.338Z,31.70
2019-04-20T11:24:16.263Z,31.80
2019-04-20T11:26:45.159Z,31.90
2019-04-20T11:29:16.086Z,31.90
2019-04-20T11:31:50.592Z,31.80
2019-04-20T11:34:21.957Z,31.70
2019-04-20T11:36:45.440Z,31.70
2019-04-20T11:39:14.750Z,31.70
2019-04-20T11:41:43.648Z,31.70
2019-04-20T11:44:12.096Z,31.70
2019-04-20T11:46:40.721Z,31.80
2019-04-20T11:49:09.784Z,31.90
2019-04-20T11:51:39.440Z,31.80
2019-04-20T11:54:08.298Z,31.80
2019-04-20T11:56:40.761Z,31.90
2019-04-20T11:59:07.301Z,31.90
2019-04-20T12:01:47.899Z,31.90
2019-04-20T12:04:20.439Z,31.80
2019-04-20T12:06:39.151Z,31.80
2019-04-20T12:09:12.894Z,31.70
2019-04-20T12:11:53.321Z,31.70
2019-04-20T12:14:10.457Z,31.70
2019-04-20T12:16:39.601Z,31.60
2019-04-20T12:19:08.576Z,31.60
2019-04-20T12:21:36.990Z,31.60
2019-04-20T12:24:06.742Z,31.70
2019-04-20T12:26:36.412Z,31.90
2019-04-20T12:29:05.690Z,32.00
2019-04-20T12:31:35.543Z,32.00
2019-04-20T12:34:06.320Z,32.00
2019-04-20T12:36:35.317Z,32.00
2019-04-20T12:39:06.877Z,32.00
2019-04-20T12:41:43.438Z,31.90
2019-04-20T12:44:05.883Z,31.90
2019-04-20T12:46:34.274Z,32.00
2019-04-20T12:49:02.736Z,32.00
2019-04-20T12:51:39.835Z,32.10
2019-04-20T12:54:02.486Z,32.20
2019-04-20T12:56:31.104Z,32.30
2019-04-20T12:58:59.868Z,32.30
2019-04-20T13:01:28.242Z,32.30
2019-04-20T13:03:57.400Z,32.30
2019-04-20T13:06:25.879Z,32.30
2019-04-20T13:08:57.507Z,32.20
2019-04-20T13:11:47.421Z,32.20
2019-04-20T13:14:20.081Z,32.10
2019-04-20T13:16:50.653Z,32.10
2019-04-20T13:19:19.310Z,32.20
2019-04-20T13:21:47.724Z,32.30
2019-04-20T13:24:16.753Z,32.40
2019-04-20T13:26:45.136Z,32.60
2019-04-20T13:29:13.532Z,32.70
2019-04-20T13:31:42.059Z,32.80
2019-04-20T13:34:10.495Z,32.90
2019-04-20T13:36:39.963Z,33.00
2019-04-20T13:39:08.534Z,33.10
2019-04-20T13:41:38.054Z,33.30
2019-04-20T13:44:06.620Z,33.40
2019-04-20T13:46:35.060Z,33.40
2019-04-20T13:49:03.369Z,33.40
2019-04-20T13:51:32.865Z,33.40
2019-04-20T13:54:01.781Z,33.50
2019-04-20T13:56:30.189Z,33.60
2019-04-20T13:59:01.418Z,33.60
2019-04-20T14:01:32.680Z,33.60
2019-04-20T14:04:02.982Z,33.50
2019-04-20T14:06:31.569Z,33.30
2019-04-20T14:09:01.193Z,33.20
2019-04-20T14:11:29.761Z,33.10
2019-04-20T14:14:01.478Z,33.10
2019-04-20T14:16:29.331Z,33.10
2019-04-20T14:18:58.793Z,33.10
2019-04-20T14:21:27.899Z,33.10
2019-04-20T14:23:57.156Z,33.20
2019-04-20T14:26:25.543Z,33.30
2019-04-20T14:28:56.807Z,33.20
2019-04-20T14:31:25.900Z,33.10
2019-04-20T14:33:55.034Z,33.00
2019-04-20T14:36:24.366Z,33.00
2019-04-20T14:38:54.187Z,32.90
2019-04-20T14:41:22.545Z,32.90
2019-04-20T14:43:51.212Z,32.90
2019-04-20T14:46:20.973Z,32.90
2019-04-20T14:48:49.456Z,32.90
2019-04-20T14:51:17.886Z,33.00
2019-04-20T14:53:47.426Z,32.90
2019-04-20T14:56:15.887Z,32.90
2019-04-20T14:58:46.895Z,32.90
2019-04-20T15:01:26.865Z,32.70
2019-04-20T15:04:01.137Z,32.70
2019-04-20T15:06:25.594Z,32.60
2019-04-20T15:08:54.735Z,32.50
2019-04-20T15:11:23.159Z,32.40
2019-04-20T15:13:52.953Z,32.40
2019-04-20T15:16:24.522Z,32.30
2019-04-20T15:18:58.236Z,32.30
2019-04-20T15:21:29.389Z,32.10
2019-04-20T15:23:57.924Z,32.00
2019-04-20T15:26:26.608Z,31.90
2019-04-20T15:28:56.701Z,31.70
2019-04-20T15:31:26.035Z,31.70
2019-04-20T15:33:54.941Z,31.70
2019-04-20T15:36:26.199Z,31.70
2019-04-20T15:38:54.713Z,31.60
2019-04-20T15:41:23.189Z,31.60
2019-04-20T15:43:51.537Z,31.50
2019-04-20T15:46:21.483Z,31.50
2019-04-20T15:48:50.251Z,31.40
2019-04-20T15:51:19.476Z,31.40
2019-04-20T15:53:49.412Z,31.30
2019-04-20T15:56:18.659Z,31.30
2019-04-20T15:58:48.391Z,31.30
2019-04-20T16:01:18.539Z,31.20
2019-04-20T16:03:48.596Z,31.10
2019-04-20T16:06:17.141Z,31.00
2019-04-20T16:08:48.228Z,31.00
2019-04-20T16:11:17.306Z,30.90
2019-04-20T16:13:50.039Z,30.90
2019-04-20T16:16:16.293Z,30.80
2019-04-20T16:18:45.319Z,30.70
2019-04-20T16:21:20.829Z,30.60
2019-04-20T16:23:46.612Z,30.50
2019-04-20T16:26:29.535Z,30.40
2019-04-20T16:28:59.596Z,30.30
2019-04-20T16:31:28.852Z,30.20
2019-04-20T16:33:58.737Z,30.10
2019-04-20T16:36:28.483Z,30.00
2019-04-20T16:38:57.403Z,29.90
2019-04-20T16:41:26.403Z,29.70
2019-04-20T16:43:55.406Z,29.60
2019-04-20T16:46:25.716Z,29.40
2019-04-20T16:48:54.979Z,29.40
2019-04-20T16:51:24.955Z,29.20
2019-04-20T16:53:53.946Z,29.10
2019-04-20T16:56:22.572Z,28.90
2019-04-20T16:58:54.562Z,28.70
2019-04-20T17:01:23.457Z,28.60
2019-04-20T17:04:02.182Z,28.50
2019-04-20T17:06:26.378Z,28.40
2019-04-20T17:08:54.841Z,28.20
2019-04-20T17:11:23.671Z,28.10
2019-04-20T17:13:56.265Z,27.90
2019-04-20T17:16:22.270Z,27.80
2019-04-20T17:18:51.973Z,27.60
2019-04-20T17:21:24.099Z,27.50
2019-04-20T17:23:51.306Z,27.30
2019-04-20T17:26:22.999Z,27.20
2019-04-20T17:29:01.983Z,27.10
2019-04-20T17:31:35.464Z,26.90
2019-04-20T17:34:21.296Z,26.70
2019-04-20T17:36:37.137Z,26.60
2019-04-20T17:39:10.245Z,26.40
2019-04-20T17:41:56.246Z,26.30
2019-04-20T17:44:26.547Z,26.10
2019-04-20T17:46:46.705Z,25.90
2019-04-20T17:49:19.664Z,25.80
2019-04-20T17:51:59.221Z,25.60
2019-04-20T17:54:17.619Z,25.50
2019-04-20T17:56:46.677Z,25.40
2019-04-20T17:59:16.576Z,25.20
2019-04-20T18:02:11.468Z,25.10
2019-04-20T18:05:02.443Z,24.90
2019-04-20T18:07:34.021Z,24.80
2019-04-20T18:09:56.241Z,24.60
2019-04-20T18:12:14.120Z,24.50
2019-04-20T18:14:48.091Z,24.30
2019-04-20T18:17:32.397Z,24.20
2019-04-20T18:19:52.407Z,24.00
2019-04-20T18:22:21.554Z,23.90
2019-04-20T18:25:12.400Z,23.70
2019-04-20T18:27:37.298Z,23.60
2019-04-20T18:30:07.036Z,23.50
2019-04-20T18:32:25.318Z,23.30
2019-04-20T18:34:59.171Z,23.20
2019-04-20T18:37:26.842Z,23.00
2019-04-20T18:40:00.827Z,22.90
2019-04-20T18:42:31.336Z,22.80
2019-04-20T18:45:12.574Z,22.60
2019-04-20T18:47:48.052Z,22.50
2019-04-20T18:50:07.405Z,22.40
2019-04-20T18:52:27.413Z,22.30
2019-04-20T18:54:57.434Z,22.10
2019-04-20T18:57:29.189Z,22.10
2019-04-20T18:59:59.124Z,22.00
2019-04-20T19:02:33.644Z,21.90
2019-04-20T19:05:00.318Z,21.70
2019-04-20T19:07:34.956Z,21.60
2019-04-20T19:10:02.601Z,21.60
2019-04-20T19:12:41.471Z,21.40
2019-04-20T19:15:20.395Z,21.30
2019-04-20T19:17:48.196Z,21.20
2019-04-20T19:20:11.996Z,21.10
2019-04-20T19:22:42.264Z,21.00
2019-04-20T19:25:18.519Z,20.90
2019-04-20T19:27:48.409Z,20.80
2019-04-20T19:30:24.711Z,20.70
2019-04-20T19:33:00.846Z,20.60
2019-04-20T19:35:30.468Z,20.50
2019-04-20T19:37:53.793Z,20.40
2019-04-20T19:40:29.054Z,20.30
2019-04-20T19:42:59.364Z,20.20
2019-04-20T19:45:36.222Z,20.20
2019-04-20T19:48:00.112Z,20.10
2019-04-20T19:53:11.263Z,19.90
2019-04-20T19:55:31.694Z,19.80
2019-04-20T19:58:02.625Z,19.70
2019-04-20T20:00:18.961Z,19.60
2019-04-20T20:02:47.855Z,19.60
2019-04-20T20:05:18.142Z,19.40
2019-04-20T20:07:49.823Z,19.40
2019-04-20T20:10:16.718Z,19.30
2019-04-20T20:12:52.792Z,19.20
2019-04-20T20:15:22.675Z,19.10
2019-04-20T20:18:05.673Z,19.00
2019-04-20T20:20:38.206Z,18.90
2019-04-20T20:22:50.569Z,18.80
2019-04-20T20:25:17.000Z,18.70
2019-04-20T20:27:52.486Z,18.70
2019-04-20T20:30:24.431Z,18.60
2019-04-20T20:33:05.943Z,18.50
2019-04-20T20:35:25.010Z,18.40
2019-04-20T20:37:53.456Z,18.30
2019-04-20T20:40:27.389Z,18.20
2019-04-20T20:43:01.557Z,18.00
2019-04-20T20:45:26.258Z,17.90
2019-04-20T20:48:04.919Z,17.80
2019-04-20T20:50:37.917Z,17.70
2019-04-20T20:53:03.620Z,17.60
2019-04-20T20:55:32.089Z,17.60
2019-04-20T20:58:01.113Z,17.50
2019-04-20T21:00:34.265Z,17.40
2019-04-20T21:02:59.261Z,17.40
2019-04-20T21:05:23.768Z,17.30
2019-04-20T21:07:53.385Z,17.20
2019-04-20T21:10:31.062Z,17.20
2019-04-20T21:12:56.441Z,17.20
2019-04-20T21:15:23.141Z,17.10
2019-04-20T21:18:16.254Z,17.10
2019-04-20T21:20:45.236Z,17.00
2019-04-20T21:23:06.937Z,17.00
2019-04-20T21:25:37.688Z,17.00
2019-04-20T21:28:02.861Z,16.90
2019-04-20T21:30:38.023Z,16.80
2019-04-20T21:33:04.216Z,16.70
2019-04-20T21:35:37.995Z,16.60
2019-04-20T21:38:07.958Z,16.50
2019-04-20T21:40:39.625Z,16.40
2019-04-20T21:43:06.954Z,16.30
2019-04-20T21:45:37.430Z,16.20
2019-04-20T21:48:11.463Z,16.20
2019-04-20T21:50:54.567Z,16.10
2019-04-20T21:53:12.935Z,16.00
2019-04-20T21:55:34.129Z,15.90
2019-04-20T21:58:05.264Z,15.90
2019-04-20T22:01:07.124Z,15.90
2019-04-20T22:03:24.661Z,15.80
2019-04-20T22:06:02.356Z,15.80
2019-04-20T22:08:32.567Z,15.70
2019-04-20T22:11:01.863Z,15.70
2019-04-20T22:13:36.400Z,15.60
2019-04-20T22:16:05.196Z,15.60
2019-04-20T22:18:31.914Z,15.60
2019-04-20T22:21:12.206Z,15.50
2019-04-20T22:23:47.546Z,15.50
2019-04-20T22:26:11.983Z,15.50
2019-04-20T22:28:31.930Z,15.40
2019-04-20T22:31:00.464Z,15.40
2019-04-20T22:33:36.292Z,15.30
2019-04-20T22:36:04.528Z,15.30
2019-04-20T22:38:54.321Z,15.20
2019-04-20T22:41:24.103Z,15.20
2019-04-20T22:43:50.418Z,15.10
2019-04-20T22:46:25.809Z,15.10
2019-04-20T22:49:06.923Z,15.00
2019-04-20T22:51:32.773Z,15.00
2019-04-20T22:54:08.542Z,14.90
2019-04-20T22:56:38.470Z,14.90
2019-04-20T22:59:01.879Z,14.80
2019-04-20T23:01:32.142Z,14.80
2019-04-20T23:03:54.944Z,14.70
2019-04-20T23:06:25.357Z,14.70
2019-04-20T23:08:59.297Z,14.60
2019-04-20T23:11:28.495Z,14.60
2019-04-20T23:13:53.756Z,14.60
2019-04-20T23:16:22.967Z,14.50
2019-04-20T23:18:51.932Z,14.50
2019-04-20T23:21:21.593Z,14.40
2019-04-20T23:23:53.675Z,14.40
2019-04-20T23:26:28.000Z,14.20
2019-04-20T23:28:55.024Z,14.10
2019-04-20T23:31:24.889Z,14.10
2019-04-20T23:33:51.919Z,14.00
2019-04-20T23:36:30.408Z,13.90
2019-04-20T23:38:54.642Z,13.90
2019-04-20T23:41:21.817Z,13.80
2019-04-20T23:43:56.136Z,13.70
2019-04-20T23:46:33.291Z,13.70
2019-04-20T23:49:24.060Z,13.60
2019-04-20T23:52:09.770Z,13.60
2019-04-20T23:54:25.399Z,13.50
2019-04-20T23:56:49.894Z,13.50
2019-04-20T23:59:19.217Z,13.40
